CDT,Max TemperatureF,Mean TemperatureF,Min TemperatureF,Max Dew PointF,MeanDew PointF,Min DewpointF,Max Humidity, Mean Humidity, Min Humidity, Max Sea Level PressureIn, Mean Sea Level PressureIn, Min Sea Level PressureIn, Max VisibilityMiles, Mean VisibilityMiles, Min VisibilityMiles, Max Wind SpeedMPH, Mean Wind SpeedMPH, Max Gust SpeedMPH,PrecipitationIn, CloudCover, Events, WindDirDegrees
2012-9-1,96,82,68,66,64,60,84,59,33,30.05,29.95,29.90,10,10,10,15,8,20,0.00,1,,355
2012-9-2,104,87,70,69,63,53,90,55,20,29.93,29.87,29.79,10,10,10,15,8,17,0.00,0,,144
2012-9-3,106,90,73,67,61,52,73,45,17,29.86,29.81,29.75,10,10,10,20,8,26,0.00,1,,183
2012-9-4,98,85,71,71,66,59,82,56,29,29.90,29.82,29.74,10,10,2,26,8,36,0.42,6,Rain-Thunderstorm,150
2012-9-5,94,81,68,70,67,66,93,69,44,29.95,29.85,29.78,10,9,2,20,5,23,0.20,5,Rain-Thunderstorm,350
2012-9-6,96,84,71,67,63,60,79,55,31,29.95,29.87,29.77,10,10,10,29,7,37,T,4,,354
2012-9-7,84,72,59,67,59,52,80,61,42,30.12,29.91,29.77,10,10,7,40,15,51,0.06,5,Rain-Thunderstorm,349
2012-9-8,81,68,54,53,48,40,89,56,23,30.22,30.15,30.08,10,10,10,18,7,23,0.00,0,,320
2012-9-9,82,70,57,49,46,41,72,49,25,30.19,30.12,30.06,10,10,10,18,8,24,0.00,0,,29
2012-9-10,91,72,52,52,48,42,83,51,19,30.14,30.05,29.95,10,10,10,21,10,28,0.00,0,,155
2012-9-11,94,75,55,51,47,45,77,48,19,29.99,29.93,29.85,10,10,10,30,17,39,0.00,1,,168
2012-9-12,95,78,61,59,55,50,84,56,28,30.06,29.92,29.86,10,10,10,28,20,33,0.00,4,,172
2012-9-13,61,58,55,57,55,52,93,84,75,30.36,30.24,30.08,10,9,2,28,16,33,0.74,8,Rain,14
2012-9-14,72,63,54,53,48,40,100,67,34,30.37,30.32,30.26,10,10,8,20,11,24,0.03,7,Rain,41
2012-9-15,67,62,57,63,58,46,100,78,56,30.27,30.19,30.10,10,6,2,10,4,23,0.02,8,,55
2012-9-16,76,68,60,63,61,58,93,76,58,30.11,30.03,29.94,10,9,5,13,4,16,0.00,6,,167
2012-9-17,81,69,56,64,58,47,100,74,48,30.04,29.93,29.87,10,6,0,28,10,32,0.00,4,Fog,199
2012-9-18,76,62,47,48,45,43,93,62,31,30.15,30.07,30.01,10,10,10,15,7,20,0.00,1,,250
2012-9-19,88,72,55,56,50,47,72,51,29,30.00,29.94,29.85,10,10,10,23,13,28,0.00,1,,190
2012-9-20,82,71,59,46,42,38,49,36,22,30.03,29.97,29.93,10,10,10,16,9,18,0.00,4,,76
2012-9-21,89,72,55,51,44,40,67,43,18,29.97,29.91,29.87,10,10,10,20,7,26,0.00,4,,360
2012-9-22,77,64,51,46,37,26,77,50,23,30.24,30.14,29.97,10,10,9,22,11,28,0.00,2,,26
2012-9-23,76,65,53,41,34,26,51,37,23,30.29,30.22,30.13,10,10,10,17,11,17,0.00,5,Thunderstorm,104
2012-9-24,91,74,57,56,49,41,72,48,24,30.12,29.93,29.75,10,10,10,32,14,41,0.00,6,,165
2012-9-25,90,76,62,66,58,51,93,64,34,29.86,29.78,29.73,10,9,2,31,8,33,1.05,6,Rain-Hail-Thunderstorm,267
2012-9-26,78,71,64,64,62,61,93,75,56,30.11,29.96,29.78,10,10,6,20,9,24,0.12,7,Rain-Thunderstorm,78
2012-9-27,73,69,64,64,63,60,100,87,73,30.16,30.11,30.06,10,8,2,10,4,17,0.00,7,,65
2012-9-28,78,69,60,64,63,61,100,78,56,30.17,30.11,30.05,10,6,0,13,5,14,0.00,6,Fog,74
2012-9-29,74,67,60,61,56,51,93,71,49,30.12,30.07,30.01,10,9,6,15,7,18,0.00,7,,58
2012-9-30,76,65,53,54,50,44,86,61,35,30.02,29.96,29.90,10,10,10,8,3,8,0.00,6,,14